»·PEaware :: DAL435 KSFO-KLAX

DAL435 :: KSFO-KLAX

FLIGHT INFORMATION

Flight Status: Arrived
Operator:
Delta Air Lines
More flights by this operator :: More flights under this callsign
Pilot: Ben F. (13029)
Aircraft: BOEING 757-200
(B752)
More flights by this aircraft type
Origin: KSFO San Francisco Intl
United States
Destination: KLAX Los Angeles Intl
United States
More flights between these airports :: More routes between these airports
Route: SSTIK4 EBAYE BURGL IRNMN2
File this flight plan on PilotEdge
Remarks: RMK / SIMBRIEF
Altitude:
(Current/Filed)
35,000ft
Speed:
(Current/Filed)
458kts
Departed: 11-Aug-19 02:10 PM
Arrived: 11-Aug-19 03:07 PM
Distance/Time
Traveled:
293nm/0:57
Distance/Time
To Go:
Arrived

Flight Plot

Page will automatically refresh every two minutes.

Flight plan parsing failed; only flown route is shown


Map Options




Map Legend


Flown Route
Filed Route
Departure Airport
Arrival Airport
Navaid (VOR, NDB)
Fix

Horizontal Profiles

Position Reports

Time Latitude Longitude Heading Altitude Ground
Speed
11-Aug-19 13:44 37.615113 -122.381806 263 35ft 0kts
11-Aug-19 13:45 37.615113 -122.381806 263 35ft 0kts
11-Aug-19 13:46 37.615113 -122.381806 263 35ft 0kts
11-Aug-19 13:47 37.615113 -122.381806 263 35ft 0kts
11-Aug-19 13:48 37.615113 -122.381806 263 35ft 0kts
11-Aug-19 13:49 37.615113 -122.381806 263 35ft 0kts
11-Aug-19 13:50 37.615113 -122.381806 263 35ft 0kts
11-Aug-19 13:51 37.615113 -122.381806 263 35ft 0kts
11-Aug-19 13:52 37.615113 -122.381806 263 35ft 0kts
11-Aug-19 13:53 37.615113 -122.381806 263 34ft 0kts
11-Aug-19 13:54 37.615113 -122.381806 263 34ft 0kts
11-Aug-19 13:55 37.615113 -122.381806 263 34ft 0kts
11-Aug-19 13:56 37.615113 -122.381806 263 34ft 0kts
11-Aug-19 13:57 37.615113 -122.381806 263 34ft 0kts
11-Aug-19 13:58 37.615133 -122.381633 248 34ft 2kts
11-Aug-19 13:59 37.615637 -122.381375 153 34ft 2kts
11-Aug-19 14:00 37.615827 -122.381630 117 34ft 0kts
11-Aug-19 14:01 37.615827 -122.381630 117 34ft 0kts
11-Aug-19 14:02 37.615827 -122.381630 117 34ft 0kts
11-Aug-19 14:03 37.615473 -122.381008 136 34ft 6kts
11-Aug-19 14:04 37.613715 -122.381571 207 34ft 7kts
11-Aug-19 14:05 37.611070 -122.383324 207 34ft 13kts
11-Aug-19 14:06 37.608516 -122.383963 118 34ft 0kts
11-Aug-19 14:07 37.608332 -122.383533 118 34ft 5kts
11-Aug-19 14:08 37.610266 -122.381348 28 34ft 30kts
11-Aug-19 14:09 37.638298 -122.364254 5 876ft 169kts
11-Aug-19 14:10 37.687644 -122.378082 297 3060ft 175kts
11-Aug-19 14:11 37.659824 -122.422777 204 4985ft 217kts
11-Aug-19 14:12 37.592334 -122.448831 194 6946ft 284kts
11-Aug-19 14:13 37.514090 -122.472205 191 10114ft 296kts
11-Aug-19 14:14 37.445240 -122.422830 133 12945ft 310kts
11-Aug-19 14:15 37.385319 -122.341832 133 15373ft 325kts
11-Aug-19 14:16 37.322737 -122.256900 133 17576ft 339kts
11-Aug-19 14:18 37.257321 -122.168332 133 19655ft 353kts
11-Aug-19 14:19 37.189447 -122.076692 133 21635ft 365kts
11-Aug-19 14:20 37.119302 -121.982262 134 23496ft 376kts
11-Aug-19 14:21 37.047726 -121.886191 134 25375ft 381kts
11-Aug-19 14:22 36.979214 -121.783788 133 27128ft 386kts
11-Aug-19 14:23 36.905747 -121.684584 134 28664ft 393kts
11-Aug-19 14:24 36.830274 -121.584190 134 30046ft 401kts
11-Aug-19 14:25 36.753006 -121.481808 134 31364ft 409kts
11-Aug-19 14:26 36.674190 -121.377905 135 32667ft 417kts
11-Aug-19 14:27 36.593183 -121.272213 135 33935ft 425kts
11-Aug-19 14:28 36.511205 -121.164716 135 35008ft 435kts
11-Aug-19 14:29 36.425276 -121.051277 132 35003ft 469kts
11-Aug-19 14:30 36.342481 -120.931820 132 34983ft 471kts
11-Aug-19 14:31 36.256757 -120.808959 132 34981ft 471kts
11-Aug-19 14:32 36.171083 -120.686650 132 34982ft 471kts
11-Aug-19 14:33 36.084920 -120.564091 132 34982ft 471kts
11-Aug-19 14:34 35.999566 -120.443121 132 34982ft 471kts
11-Aug-19 14:35 35.913288 -120.321280 133 34976ft 471kts
11-Aug-19 14:36 35.813447 -120.220162 150 34963ft 468kts
11-Aug-19 14:36 35.721995 -120.150487 150 34963ft 468kts
11-Aug-19 14:38 35.596011 -120.055357 151 34965ft 446kts
11-Aug-19 14:39 35.490401 -119.975829 151 34963ft 446kts
11-Aug-19 14:40 35.386385 -119.897721 151 34960ft 429kts
11-Aug-19 14:40 35.301201 -119.833888 149 34372ft 435kts
11-Aug-19 14:41 35.204352 -119.744910 144 32375ft 440kts
11-Aug-19 14:43 35.090323 -119.638622 144 30034ft 440kts
11-Aug-19 14:43 35.010691 -119.564496 144 28371ft 428kts
11-Aug-19 14:44 34.918375 -119.478971 144 26854ft 405kts
11-Aug-19 14:45 34.827420 -119.397520 144 24779ft 400kts
11-Aug-19 14:46 34.740296 -119.319943 145 22868ft 388kts
11-Aug-19 14:47 34.654263 -119.244804 145 21216ft 373kts
11-Aug-19 14:48 34.570667 -119.172705 145 19537ft 365kts
11-Aug-19 14:49 34.489535 -119.100897 144 17879ft 357kts
11-Aug-19 14:50 34.409987 -119.031224 145 16276ft 350kts
11-Aug-19 14:51 34.332134 -118.963187 143 14714ft 341kts
11-Aug-19 14:52 34.257242 -118.895157 143 13193ft 332kts
11-Aug-19 14:53 34.185940 -118.829645 143 12232ft 306kts
11-Aug-19 14:54 34.122756 -118.764328 138 11344ft 295kts
11-Aug-19 14:55 34.063501 -118.700152 138 10278ft 278kts
11-Aug-19 14:56 34.027280 -118.623629 97 9013ft 277kts
11-Aug-19 14:57 34.018193 -118.532174 97 8002ft 270kts
11-Aug-19 14:58 34.013343 -118.445958 79 7578ft 242kts
11-Aug-19 14:59 34.026883 -118.366724 79 6160ft 238kts
11-Aug-19 15:00 34.034549 -118.296752 84 5988ft 236kts
11-Aug-19 15:01 34.022746 -118.225499 157 6016ft 229kts
11-Aug-19 15:02 33.973701 -118.242817 243 5681ft 196kts
11-Aug-19 15:03 33.963295 -118.305348 261 3860ft 189kts
11-Aug-19 15:04 33.956347 -118.362815 259 1404ft 155kts
11-Aug-19 15:05 33.951615 -118.406639 261 116ft 106kts
11-Aug-19 15:06 33.949409 -118.419189 233 114ft 13kts
11-Aug-19 15:07 33.948920 -118.420002 234 114ft 5kts
11-Aug-19 15:08 33.947315 -118.422395 196 114ft 10kts
11-Aug-19 15:09 33.947275 -118.417920 82 114ft 18kts
11-Aug-19 15:10 33.947581 -118.415065 83 114ft 12kts
11-Aug-19 15:11 33.945553 -118.412612 173 114ft 16kts
11-Aug-19 15:12 33.938915 -118.411610 169 114ft 16kts
11-Aug-19 15:13 33.938770 -118.408167 83 114ft 9kts
11-Aug-19 15:14 33.939135 -118.404515 83 114ft 17kts
11-Aug-19 15:15 33.942054 -118.403708 278 114ft 9kts

Navigation Log

Ident Type
Flight plan parsing failed, navigation log unavailable